WetterOnline ( https://www.wetteronline.de )

Wetter aktuell Lütetsburg

Aktuelles Wetter: Norderney (16m)

6-stündlich | Neueste Meldungen
Ortszeit Temperatur Wetter
Do, 04.03. 13:00 4.6° C bewölkt
Do, 04.03. 7:00 3.4° C bedeckt
Do, 04.03. 1:00 2.6° C bedeckt
Mi, 03.03. 19:00 3.0° C Nebel
Mi, 03.03. 13:00 2.7° C Nebel
Mi, 03.03. 7:00 3.3° C wolkenlos
Mi, 03.03. 1:00 4.5° C wolkenlos
Di, 02.03. 19:00 2.4° C Nebel
Ortszeit Temperatur Wetter
Do, 04.03. 13:30 4.4° C bewölkt
Do, 04.03. 13:20 4.4° C bewölkt
Do, 04.03. 13:10 4.7° C bewölkt
Do, 04.03. 13:00 4.6° C bewölkt
Do, 04.03. 12:50 4.6° C bewölkt
Do, 04.03. 12:40 4.5° C bewölkt
Do, 04.03. 12:30 4.6° C bewölkt
Do, 04.03. 12:00 4.4° C bedeckt
Do, 04.03. 11:30 4.5° C bedeckt
Do, 04.03. 11:00 4.5° C bedeckt
Ortszeit Relative Feuchte Sichtweite
Do, 04.03. 13:00 79% 11 km
Do, 04.03. 7:00 90% 40 km
Do, 04.03. 1:00 96% 3.2 km
Mi, 03.03. 19:00 99% 0.2 km
Mi, 03.03. 13:00 97% 0.2 km
Mi, 03.03. 7:00 92% 8 km
Mi, 03.03. 1:00 86% 14 km
Di, 02.03. 19:00 100% 0.2 km
Ortszeit Relative Feuchte Sichtweite
Do, 04.03. 13:30 79% 10 km
Do, 04.03. 13:20 79% -
Do, 04.03. 13:10 77% -
Do, 04.03. 13:00 79% 11 km
Do, 04.03. 12:50 79% -
Do, 04.03. 12:40 77% -
Do, 04.03. 12:30 77% 15 km
Do, 04.03. 12:00 80% 16 km
Do, 04.03. 11:30 83% 16 km
Do, 04.03. 11:00 83% 19 km
Ortszeit Niederschlagsmenge Niederschlagsart
Do, 04.03. 13:00 0.0 l/m2 in 6 Std. -
Do, 04.03. 7:00 0.1 l/m2 in 12 Std. Sprühregen
Do, 04.03. 1:00 0.0 l/m2 in 6 Std. -
Mi, 03.03. 19:00 0.0 l/m2 in 12 Std. -
Mi, 03.03. 13:00 0.0 l/m2 in 6 Std. -
Mi, 03.03. 7:00 0.0 l/m2 in 12 Std. -
Mi, 03.03. 1:00 0.0 l/m2 in 6 Std. -
Di, 02.03. 19:00 0.0 l/m2 in 12 Std. -
Ortszeit Niederschlagsmenge Niederschlagsart
Do, 04.03. 13:30 0.0 l/m2 in 1 Std. -
Do, 04.03. 13:20 keine Meldung -
Do, 04.03. 13:10 keine Meldung -
Do, 04.03. 13:00 0.0 l/m2 in 1 Std. -
Do, 04.03. 12:50 keine Meldung -
Do, 04.03. 12:40 keine Meldung -
Do, 04.03. 12:30 0.0 l/m2 in 1 Std. -
Do, 04.03. 12:00 0.0 l/m2 in 1 Std. -
Do, 04.03. 11:30 0.0 l/m2 in 1 Std. -
Do, 04.03. 11:00 0.0 l/m2 in 1 Std. -
Ortszeit Stärke Spitze Richtung
km/h Bft. km/h Grad Sektor
Do, 04.03. 13:00 22 4 32 330° NW
Do, 04.03. 7:00 19 3 30 270° W
Do, 04.03. 1:00 17 3 30 320° NW
Mi, 03.03. 19:00 22 4 33 300° NW
Mi, 03.03. 13:00 22 4 32 260° W
Mi, 03.03. 7:00 15 3 20 170° S
Mi, 03.03. 1:00 17 3 20 140° SO
Di, 02.03. 19:00 17 3 30 80° O
Ortszeit Stärke Spitze Richtung
km/h Bft. km/h Grad Sektor
Do, 04.03. 13:30 22 4 25 330° NW
Do, 04.03. 13:20 22 4 - 330° NW
Do, 04.03. 13:10 22 4 - 330° NW
Do, 04.03. 13:00 22 4 29 330° NW
Do, 04.03. 12:50 22 4 - 330° NW
Do, 04.03. 12:40 24 4 - 340° N
Do, 04.03. 12:30 26 4 30 330° NW
Do, 04.03. 12:00 26 4 31 330° NW
Do, 04.03. 11:30 22 4 32 350° N
Do, 04.03. 11:00 25 4 32 350° N
Ortszeit Untergrenze Bedeckung Gattung
total tief tief mittel hoch
Do, 04.03. 13:00 600 m 7/8 7/8 - - -
Do, 04.03. 7:00 510 m 8/8 8/8 - - -
Do, 04.03. 1:00 90 m 8/8 8/8 - - -
Mi, 03.03. 19:00 <30 m 8/8 0/8 - - -
Mi, 03.03. 13:00 <30 m 8/8 0/8 - - -
Mi, 03.03. 7:00 - 0/8 0/8 - - -
Mi, 03.03. 1:00 - 0/8 0/8 - - -
Di, 02.03. 19:00 <30 m 8/8 0/8 - - -
Ortszeit Bedeckungsgrad in Achtel und Wolkenuntergrenze
Do, 04.03. 13:30 7(600m) 7(6300m)
Do, 04.03. 13:20 7(600m) 7(6300m)
Do, 04.03. 13:10 7(630m) 7(6300m)
Do, 04.03. 13:00 7(600m) 7(6000m) 7(6900m)
Do, 04.03. 12:50 7(600m) 7(6000m) 7(6900m)
Do, 04.03. 12:40 7(600m) 7(5100m) 7(6000m)
Do, 04.03. 12:30 7(570m) 7(5100m) 7(6300m)
Do, 04.03. 12:00 8(510m)
Do, 04.03. 11:30 8(510m)
Do, 04.03. 11:00 8(540m)
Ortszeit Luftdruck NN (hPa) Tendenz (hPa in 3 Std.)
Do, 04.03. 13:00 1020 0,0
Do, 04.03. 7:00 1021 - 1,7
Do, 04.03. 1:00 1024 - 1,1
Mi, 03.03. 19:00 1025 - 0,5
Mi, 03.03. 13:00 1027 0,0
Mi, 03.03. 7:00 1027 - 1,0
Mi, 03.03. 1:00 1029 - 1,1
Di, 02.03. 19:00 1031 - 0,7
Ortszeit Luftdruck NN (hPa) Tendenz (hPa in 3 Std.)
Do, 04.03. 13:30 1020 - 0,3
Do, 04.03. 13:20 1020 keine Meldung
Do, 04.03. 13:10 1020 keine Meldung
Do, 04.03. 13:00 1020 0,0
Do, 04.03. 12:50 1020 keine Meldung
Do, 04.03. 12:40 1021 keine Meldung
Do, 04.03. 12:30 1021 + 0,2
Do, 04.03. 12:00 1021 + 0,1
Do, 04.03. 11:30 1021 + 0,1
Do, 04.03. 11:00 1020 - 0,3
Ortszeit Schneehöhe (cm)
Do, 04.03. 13:00 0
Do, 04.03. 7:00 0
Do, 04.03. 1:00 0
Mi, 03.03. 19:00 0
Mi, 03.03. 13:00 0
Mi, 03.03. 7:00 0
Mi, 03.03. 1:00 0
Di, 02.03. 19:00 0
Ortszeit Schneehöhe (cm)
Do, 04.03. 13:30 -
Do, 04.03. 13:20 -
Do, 04.03. 13:10 -
Do, 04.03. 13:00 0
Do, 04.03. 12:50 -
Do, 04.03. 12:40 -
Do, 04.03. 12:30 -
Do, 04.03. 12:00 0
Do, 04.03. 11:30 0
Do, 04.03. 11:00 0
Link zu dieser Seite / Seite empfehlen

Das Wetter in ...